Метеостанция


АнтоновUKKM 101000Z 35007MPS CAVOK 12/M01 Q1015 R33/CLRD60 TEMPO 33010G16MPS
БориспольUKBB 101000Z 33007MPS 9999 FEW036 11/03 Q1014 R36R/290050 TEMPO 34010G16MPS
Гаврышовка (Винница)UKWW 101000Z 30009MPS 260V340 9999 NSC 12/M01 Q1016 NOSIG
ДнепропетровскUKDD 101000Z 24005G11MPS 200V290 CAVOK 21/M01 Q1009 R26/090070 TEMPO 24007G12MPS
ЖуляныUKKK 101000Z 03005MPS 350V070 CAVOK 12/03 Q1015 R26/290058 TEMPO 33009G14MPS
Запорожье(Мокрая)UKDE 101000Z 20007MPS 160V230 CAVOK 20/01 Q1010 R20L/090070 NOSIG
Ивано-ФранковскUKLI 101000Z 32007G12MPS 270V030 9999 BKN046 14/M04 Q1021 NOSIG
Кривой РогUKDR 101000Z 27005G11MPS 230V300 CAVOK 23/M03 Q1009 R36/09//70 NOSIG
ЛьвовUKLL 101000Z 34008MPS 300V010 CAVOK 11/M05 Q1023 R31/CLRD// NOSIG
Николаев
ОдессаUKOO 101000Z 26005MPS 230V330 CAVOK 22/M01 Q1013 R16/090060 NOSIG
РовноUKLR 101000Z 34009MPS 320V020 CAVOK 11/M09 Q1021 NOSIG
УжгородUKLU 101000Z 34006MPS 270V040 9999 NSC 16/M01 Q1021 R10/090070 NOSIG
Харьков
Черновцы
Скачать:
Скачать этот файл (Metar_шпаргалка.jpg)Расшифровка METAR[ ]4799 Кб
Вся информация, которая имеется в использовании на сайте и доступная для скачивания, получена исключительно из открытых источников информации сети Интернет, всякое совпадение с данными, имеющими ограничения в доступе, случайное и не является преднамеренным.
^ Наверх